createdAt,value
2022-11-05T00:01:54.015Z,2.00
2022-11-05T00:04:39.346Z,2.07
2022-11-05T00:07:27.324Z,1.60
2022-11-05T00:10:03.571Z,1.70
2022-11-05T00:12:48.779Z,3.07
2022-11-05T00:15:34.304Z,2.30
2022-11-05T00:18:00.945Z,1.90
2022-11-05T00:20:27.505Z,2.00
2022-11-05T00:23:20.525Z,2.27
2022-11-05T00:26:01.992Z,3.33
2022-11-05T00:28:30.428Z,1.70
2022-11-05T00:31:05.863Z,2.87
2022-11-05T00:33:33.145Z,1.87
2022-11-05T00:35:59.643Z,1.90
2022-11-05T00:38:26.141Z,1.77
2022-11-05T00:40:52.825Z,1.60
2022-11-05T00:43:38.211Z,2.27
2022-11-05T00:46:05.112Z,1.50
2022-11-05T00:48:50.262Z,1.57
2022-11-05T00:51:17.086Z,1.97
2022-11-05T00:53:43.619Z,2.67
2022-11-05T00:56:10.127Z,2.07
2022-11-05T00:58:36.675Z,1.60
2022-11-05T01:01:03.976Z,3.40
2022-11-05T01:03:33.137Z,5.50
2022-11-05T01:06:13.962Z,1.67
2022-11-05T01:08:42.074Z,1.40
2022-11-05T01:11:34.223Z,1.33
2022-11-05T01:14:07.719Z,1.53
2022-11-05T01:16:35.156Z,1.30
2022-11-05T01:19:03.096Z,2.87
2022-11-05T01:21:29.591Z,1.70
2022-11-05T01:23:56.360Z,1.20
2022-11-05T01:26:23.061Z,1.80
2022-11-05T01:28:57.779Z,1.70
2022-11-05T01:31:24.791Z,1.57
2022-11-05T01:33:51.338Z,3.67
2022-11-05T01:36:18.247Z,1.90
2022-11-05T01:38:45.181Z,2.33
2022-11-05T01:41:11.791Z,1.63
2022-11-05T01:44:26.463Z,1.30
2022-11-05T01:46:53.045Z,2.27
2022-11-05T01:49:33.256Z,1.53
2022-11-05T01:52:03.084Z,2.40
2022-11-05T01:54:33.277Z,2.30
2022-11-05T01:57:04.092Z,2.30
2022-11-05T01:59:35.289Z,2.50
2022-11-05T02:02:02.598Z,2.50
2022-11-05T02:04:46.073Z,1.97
2022-11-05T02:07:13.131Z,1.33
2022-11-05T02:09:48.338Z,0.80
2022-11-05T02:12:15.460Z,1.20
2022-11-05T02:14:42.006Z,1.17
2022-11-05T02:17:26.183Z,1.60
2022-11-05T02:20:11.435Z,0.80
2022-11-05T02:22:53.362Z,0.90
2022-11-05T02:25:50.816Z,1.23
2022-11-05T02:28:36.295Z,1.10
2022-11-05T02:31:12.078Z,0.93
2022-11-05T02:33:57.106Z,0.73
2022-11-05T02:36:38.700Z,0.70
2022-11-05T02:39:43.347Z,0.80
2022-11-05T02:42:39.065Z,1.23
2022-11-05T02:45:30.847Z,0.83
2022-11-05T02:48:11.784Z,0.87
2022-11-05T02:50:58.593Z,2.83
2022-11-05T02:53:42.603Z,1.90
2022-11-05T02:56:21.297Z,2.53
2022-11-05T02:58:48.044Z,1.80
2022-11-05T03:01:14.635Z,1.03
2022-11-05T03:03:47.288Z,1.10
2022-11-05T03:06:32.300Z,2.63
2022-11-05T03:09:11.239Z,1.33
2022-11-05T03:12:08.096Z,1.30
2022-11-05T03:14:54.059Z,1.53
2022-11-05T03:17:31.172Z,1.20
2022-11-05T03:20:18.519Z,3.60
2022-11-05T03:22:54.244Z,1.50
2022-11-05T03:25:24.325Z,1.40
2022-11-05T03:27:57.512Z,1.30
2022-11-05T03:30:25.452Z,1.37
2022-11-05T03:33:06.875Z,1.47
2022-11-05T03:35:40.084Z,1.30
2022-11-05T03:38:12.931Z,1.30
2022-11-05T03:40:42.737Z,2.87
2022-11-05T03:43:09.820Z,1.33
2022-11-05T03:45:55.980Z,2.97
2022-11-05T03:48:25.846Z,1.37
2022-11-05T03:51:10.143Z,2.50
2022-11-05T03:53:47.325Z,1.50
2022-11-05T03:56:29.428Z,1.40
2022-11-05T03:58:59.142Z,1.47
2022-11-05T04:01:26.394Z,1.80
2022-11-05T04:03:53.203Z,1.57
2022-11-05T04:06:38.741Z,1.27
2022-11-05T04:09:23.815Z,1.20
2022-11-05T04:12:08.713Z,1.33
2022-11-05T04:14:35.583Z,1.83
2022-11-05T04:17:09.140Z,1.70
2022-11-05T04:19:56.195Z,2.30
2022-11-05T04:22:41.877Z,1.40
2022-11-05T04:25:08.887Z,1.20
2022-11-05T04:27:36.520Z,1.93
2022-11-05T04:30:20.031Z,1.93
2022-11-05T04:33:07.800Z,1.47
2022-11-05T04:35:37.163Z,0.97
2022-11-05T04:38:05.640Z,1.00
2022-11-05T04:40:32.585Z,1.87
2022-11-05T04:42:59.794Z,1.17
2022-11-05T04:45:29.708Z,1.20
2022-11-05T04:47:56.290Z,1.30
2022-11-05T04:50:23.572Z,1.00
2022-11-05T04:52:50.088Z,1.20
2022-11-05T04:55:16.701Z,0.93
2022-11-05T04:57:43.651Z,1.30
2022-11-05T05:00:11.341Z,1.00
2022-11-05T05:02:38.118Z,1.00
2022-11-05T05:05:05.909Z,1.53
2022-11-05T05:07:33.887Z,1.27
2022-11-05T05:10:02.030Z,1.27
2022-11-05T05:12:28.925Z,1.30
2022-11-05T05:14:55.477Z,1.90
2022-11-05T05:17:22.081Z,1.37
2022-11-05T05:20:07.457Z,1.10
2022-11-05T05:22:34.069Z,1.63
2022-11-05T05:25:00.620Z,1.17
2022-11-05T05:27:30.951Z,1.30
2022-11-05T05:29:58.872Z,1.73
2022-11-05T05:32:26.082Z,1.40
2022-11-05T05:34:52.937Z,1.47
2022-11-05T05:37:20.052Z,1.43
2022-11-05T05:39:47.974Z,1.93
2022-11-05T05:42:15.352Z,1.60
2022-11-05T05:44:42.056Z,1.67
2022-11-05T05:47:08.799Z,2.37
2022-11-05T05:49:35.392Z,1.60
2022-11-05T05:52:02.088Z,1.40
2022-11-05T05:54:32.349Z,1.50
2022-11-05T05:57:00.232Z,1.93
2022-11-05T05:59:26.754Z,1.50
2022-11-05T06:01:53.427Z,2.23
2022-11-05T06:04:20.667Z,2.17
2022-11-05T06:06:47.214Z,2.47
2022-11-05T06:09:14.264Z,1.40
2022-11-05T06:11:41.343Z,2.03
2022-11-05T06:14:10.991Z,2.30
2022-11-05T06:16:39.024Z,3.00
2022-11-05T06:19:06.813Z,2.63
2022-11-05T06:21:33.913Z,2.07
2022-11-05T06:24:02.273Z,2.97
2022-11-05T06:26:29.158Z,3.73
2022-11-05T06:28:55.696Z,5.10
2022-11-05T06:31:22.591Z,2.77
2022-11-05T06:33:49.128Z,2.50
2022-11-05T06:36:17.599Z,1.70
2022-11-05T06:38:44.281Z,2.60
2022-11-05T06:41:11.021Z,3.10
2022-11-05T06:43:38.107Z,2.03
2022-11-05T06:46:05.071Z,1.37
2022-11-05T06:48:31.752Z,2.30
2022-11-05T06:50:58.356Z,3.30
2022-11-05T06:53:25.700Z,2.50
2022-11-05T06:55:52.261Z,1.83
2022-11-05T06:58:18.913Z,1.53
2022-11-05T07:00:45.648Z,1.87
2022-11-05T07:03:13.580Z,3.80
2022-11-05T07:05:45.216Z,1.73
2022-11-05T07:08:11.819Z,2.20
2022-11-05T07:10:38.572Z,2.10
2022-11-05T07:13:08.445Z,1.87
2022-11-05T07:15:36.845Z,2.53
2022-11-05T07:18:04.120Z,4.30
2022-11-05T07:20:33.861Z,1.87
2022-11-05T07:23:02.557Z,2.20
2022-11-05T07:25:31.197Z,1.90
2022-11-05T07:27:57.932Z,1.53
2022-11-05T07:30:24.726Z,1.60
2022-11-05T07:32:51.320Z,1.73
2022-11-05T07:35:18.169Z,1.70
2022-11-05T07:37:54.141Z,1.57
2022-11-05T07:40:21.609Z,1.77
2022-11-05T07:42:50.518Z,2.80
2022-11-05T07:45:17.329Z,2.90
2022-11-05T07:47:48.821Z,2.27
2022-11-05T07:50:17.804Z,2.10
2022-11-05T07:52:44.633Z,3.00
2022-11-05T07:55:13.231Z,2.60
2022-11-05T07:57:51.019Z,2.80
2022-11-05T08:00:22.580Z,2.40
2022-11-05T08:03:11.038Z,2.87
2022-11-05T08:05:40.306Z,2.70
2022-11-05T08:08:09.070Z,2.60
2022-11-05T08:10:37.013Z,2.70
2022-11-05T08:13:04.656Z,3.07
2022-11-05T08:15:31.621Z,5.13
2022-11-05T08:18:03.428Z,3.07
2022-11-05T08:20:30.410Z,2.70
2022-11-05T08:22:57.628Z,2.67
2022-11-05T08:25:25.492Z,3.43
2022-11-05T08:27:57.035Z,2.63
2022-11-05T08:30:24.226Z,2.97
2022-11-05T08:32:51.361Z,3.73
2022-11-05T08:35:18.116Z,3.20
2022-11-05T08:37:44.644Z,3.60
2022-11-05T08:40:11.773Z,3.23
2022-11-05T08:42:38.333Z,3.13
2022-11-05T08:45:05.181Z,4.80
2022-11-05T08:47:31.900Z,4.60
2022-11-05T08:49:58.426Z,3.10
2022-11-05T08:52:24.928Z,3.20
2022-11-05T08:54:51.503Z,3.10
2022-11-05T08:57:18.020Z,3.13
2022-11-05T08:59:44.527Z,4.43
2022-11-05T09:02:11.350Z,3.03
2022-11-05T09:04:37.956Z,3.20
2022-11-05T09:07:04.473Z,3.67
2022-11-05T09:09:31.159Z,3.70
2022-11-05T09:12:11.728Z,3.30
2022-11-05T09:14:39.290Z,3.30
2022-11-05T09:17:16.974Z,3.37
2022-11-05T09:19:44.211Z,3.50
2022-11-05T09:22:12.779Z,3.53
2022-11-05T09:24:41.723Z,3.83
2022-11-05T09:27:15.764Z,4.23
2022-11-05T09:29:42.645Z,5.30
2022-11-05T09:32:09.545Z,6.20
2022-11-05T09:34:36.586Z,3.90
2022-11-05T09:37:03.569Z,3.70
2022-11-05T09:39:30.408Z,4.23
2022-11-05T09:42:02.816Z,4.30
2022-11-05T09:44:41.866Z,5.00
2022-11-05T09:47:16.251Z,3.67
2022-11-05T09:49:48.096Z,5.43
2022-11-05T09:52:21.797Z,3.40
2022-11-05T09:54:50.269Z,3.70
2022-11-05T09:57:24.583Z,4.70
2022-11-05T09:59:57.615Z,3.53
2022-11-05T10:02:33.000Z,3.87
2022-11-05T10:05:09.182Z,3.80
2022-11-05T10:07:44.582Z,4.37
2022-11-05T10:10:40.871Z,4.07
2022-11-05T10:13:21.960Z,3.87
2022-11-05T10:16:02.542Z,3.30
2022-11-05T10:18:37.357Z,4.83
2022-11-05T10:21:04.452Z,3.43
2022-11-05T10:23:31.045Z,3.60
2022-11-05T10:26:05.624Z,2.30
2022-11-05T10:28:34.086Z,2.47
2022-11-05T10:31:14.567Z,2.77
2022-11-05T10:33:46.447Z,3.17
2022-11-05T10:36:34.966Z,2.70
2022-11-05T10:39:16.061Z,2.67
2022-11-05T10:42:20.244Z,2.33
2022-11-05T10:45:08.461Z,2.83
2022-11-05T10:48:04.504Z,2.77
2022-11-05T10:50:31.555Z,4.40
2022-11-05T10:53:02.412Z,5.97
2022-11-05T10:55:31.686Z,4.53
2022-11-05T10:58:11.836Z,2.83
2022-11-05T11:00:39.187Z,6.90
2022-11-05T11:03:26.680Z,3.07
2022-11-05T11:06:02.787Z,2.70
2022-11-05T11:08:33.464Z,2.70
2022-11-05T11:11:06.196Z,2.20
2022-11-05T11:13:58.223Z,3.00
2022-11-05T11:16:27.576Z,4.07
2022-11-05T11:19:00.935Z,4.87
2022-11-05T11:21:30.202Z,2.03
2022-11-05T11:24:06.947Z,3.13
2022-11-05T11:26:37.631Z,3.43
2022-11-05T11:29:25.464Z,2.50
2022-11-05T11:31:59.814Z,2.50
2022-11-05T11:34:34.101Z,3.63
2022-11-05T11:37:19.206Z,3.30
2022-11-05T11:39:53.784Z,2.33
2022-11-05T11:42:36.807Z,3.67
2022-11-05T11:45:27.204Z,2.43
2022-11-05T11:47:56.514Z,1.87
2022-11-05T11:50:44.251Z,1.53
2022-11-05T11:53:34.616Z,1.87
2022-11-05T11:56:14.494Z,2.00
2022-11-05T11:58:51.469Z,2.40
2022-11-05T12:01:42.409Z,1.60
2022-11-05T12:04:21.683Z,1.77
2022-11-05T12:07:15.597Z,1.50
2022-11-05T12:09:51.372Z,1.47
2022-11-05T12:12:26.105Z,2.13
2022-11-05T12:15:00.904Z,2.23
2022-11-05T12:17:51.850Z,4.13
2022-11-05T12:20:31.688Z,3.20
2022-11-05T12:23:13.894Z,1.53
2022-11-05T12:26:02.065Z,1.40
2022-11-05T12:28:57.893Z,1.17
2022-11-05T12:31:59.050Z,1.40
2022-11-05T12:34:51.556Z,1.90
2022-11-05T12:37:53.026Z,1.57
2022-11-05T12:40:31.745Z,1.67
2022-11-05T12:43:13.814Z,1.37
2022-11-05T12:46:18.581Z,1.53
2022-11-05T12:49:08.220Z,1.40
2022-11-05T12:51:57.708Z,1.43
2022-11-05T12:54:30.293Z,1.13
2022-11-05T12:57:01.679Z,1.80
2022-11-05T12:59:49.604Z,1.37
2022-11-05T13:02:33.164Z,1.00
2022-11-05T13:05:06.712Z,1.30
2022-11-05T13:07:40.880Z,1.30
2022-11-05T13:10:13.663Z,1.37
2022-11-05T13:12:42.608Z,1.20
2022-11-05T13:15:32.848Z,2.00
2022-11-05T13:18:04.684Z,1.70
2022-11-05T13:20:39.854Z,2.30
2022-11-05T13:23:21.349Z,1.30
2022-11-05T13:25:53.413Z,1.67
2022-11-05T13:28:46.993Z,1.27
2022-11-05T13:31:18.643Z,3.50
2022-11-05T13:33:48.608Z,1.33
2022-11-05T13:37:02.952Z,1.40
2022-11-05T13:39:38.224Z,1.00
2022-11-05T13:42:19.825Z,1.87
2022-11-05T13:45:18.816Z,2.70
2022-11-05T13:48:11.707Z,1.37
2022-11-05T13:51:02.824Z,5.17
2022-11-05T13:53:49.424Z,1.60
2022-11-05T13:56:21.645Z,2.10
2022-11-05T13:59:22.480Z,1.00
2022-11-05T14:02:00.152Z,1.33
2022-11-05T14:04:39.258Z,1.07
2022-11-05T14:07:19.572Z,1.97
2022-11-05T14:09:48.540Z,1.97
2022-11-05T14:12:26.839Z,1.80
2022-11-05T14:15:00.150Z,1.20
2022-11-05T14:17:54.707Z,6.50
2022-11-05T14:20:30.447Z,3.10
2022-11-05T14:23:25.172Z,2.60
2022-11-05T14:26:23.622Z,1.50
2022-11-05T14:29:11.321Z,1.27
2022-11-05T14:32:07.935Z,1.33
2022-11-05T14:34:43.960Z,1.50
2022-11-05T14:37:13.602Z,1.50
2022-11-05T14:39:41.392Z,1.77
2022-11-05T14:42:29.612Z,2.67
2022-11-05T14:45:21.179Z,1.60
2022-11-05T14:48:26.092Z,1.93
2022-11-05T14:50:52.778Z,1.50
2022-11-05T14:53:25.502Z,1.30
2022-11-05T14:56:02.525Z,27.10
2022-11-05T14:58:32.663Z,8.07
2022-11-05T15:01:01.000Z,9.33
2022-11-05T15:03:35.219Z,1.90
2022-11-05T15:06:17.687Z,3.40
2022-11-05T15:08:50.341Z,2.83
2022-11-05T15:11:30.325Z,3.73
2022-11-05T15:14:18.155Z,5.80
2022-11-05T15:16:52.950Z,5.80
2022-11-05T15:19:37.123Z,2.67
2022-11-05T15:22:10.784Z,2.50
2022-11-05T15:24:40.600Z,4.33
2022-11-05T15:27:10.321Z,1.90
2022-11-05T15:29:36.953Z,1.90
2022-11-05T15:32:03.641Z,1.93
2022-11-05T15:34:33.177Z,2.20
2022-11-05T15:37:02.969Z,2.27
2022-11-05T15:39:41.520Z,3.77
2022-11-05T15:42:24.669Z,3.00
2022-11-05T15:44:56.762Z,5.43
2022-11-05T15:47:31.416Z,4.37
2022-11-05T15:50:14.685Z,1.70
2022-11-05T15:52:50.711Z,1.77
2022-11-05T15:55:26.410Z,1.57
2022-11-05T15:58:03.075Z,2.30
2022-11-05T16:00:33.259Z,1.97
2022-11-05T16:03:06.316Z,3.37
2022-11-05T16:05:35.652Z,2.70
2022-11-05T16:08:04.388Z,3.13
2022-11-05T16:10:33.659Z,1.70
2022-11-05T16:13:35.836Z,3.97
2022-11-05T16:16:21.190Z,5.63
2022-11-05T16:18:47.849Z,4.13
2022-11-05T16:21:22.552Z,4.07
2022-11-05T16:23:49.220Z,2.60
2022-11-05T16:27:00.035Z,1.90
2022-11-05T16:29:34.820Z,2.20
2022-11-05T16:32:04.861Z,2.20
2022-11-05T16:34:41.816Z,2.10
2022-11-05T16:37:13.562Z,4.77
2022-11-05T16:39:40.414Z,2.53
2022-11-05T16:42:37.955Z,2.27
2022-11-05T16:45:05.460Z,2.00
2022-11-05T16:47:32.001Z,4.50
2022-11-05T16:49:59.085Z,1.93
2022-11-05T16:52:25.680Z,2.00
2022-11-05T16:54:52.195Z,1.97
2022-11-05T16:57:27.224Z,2.60
2022-11-05T16:59:59.300Z,1.87
2022-11-05T17:02:26.249Z,2.23
2022-11-05T17:04:53.131Z,3.87
2022-11-05T17:07:19.687Z,1.70
2022-11-05T17:09:46.267Z,3.33
2022-11-05T17:12:13.620Z,2.00
2022-11-05T17:14:40.250Z,2.47
2022-11-05T17:17:06.984Z,2.43
2022-11-05T17:19:33.620Z,6.23
2022-11-05T17:22:00.168Z,2.93
2022-11-05T17:24:26.701Z,2.40
2022-11-05T17:26:53.259Z,4.13
2022-11-05T17:29:19.813Z,5.33
2022-11-05T17:31:46.362Z,1.97
2022-11-05T17:34:12.944Z,4.50
2022-11-05T17:36:39.470Z,4.27
2022-11-05T17:39:06.051Z,2.43
2022-11-05T17:41:32.799Z,3.53
2022-11-05T17:44:00.314Z,6.30
2022-11-05T17:46:26.977Z,4.33
2022-11-05T17:48:53.713Z,5.20
2022-11-05T17:51:21.104Z,3.70
2022-11-05T17:53:49.254Z,5.23
2022-11-05T17:56:28.906Z,4.50
2022-11-05T17:59:01.050Z,2.77
2022-11-05T18:01:33.371Z,2.47
2022-11-05T18:04:05.475Z,4.43
2022-11-05T18:06:34.812Z,2.60
2022-11-05T18:09:01.581Z,2.70
2022-11-05T18:11:28.110Z,2.60
2022-11-05T18:13:54.833Z,2.23
2022-11-05T18:16:21.331Z,2.77
2022-11-05T18:18:49.305Z,3.70
2022-11-05T18:21:16.213Z,4.53
2022-11-05T18:23:42.948Z,3.43
2022-11-05T18:26:11.082Z,3.00
2022-11-05T18:28:38.328Z,5.37
2022-11-05T18:31:08.270Z,5.87
2022-11-05T18:33:34.988Z,3.50
2022-11-05T18:36:01.552Z,5.03
2022-11-05T18:38:28.127Z,4.43
2022-11-05T18:40:54.674Z,3.93
2022-11-05T18:43:21.390Z,4.90
2022-11-05T18:45:55.852Z,4.07
2022-11-05T18:48:22.429Z,3.77
2022-11-05T18:50:49.589Z,5.47
2022-11-05T18:53:16.323Z,3.97
2022-11-05T18:55:42.918Z,3.87
2022-11-05T18:58:09.651Z,3.97
2022-11-05T19:00:39.708Z,6.10
2022-11-05T19:03:07.349Z,4.93
2022-11-05T19:05:34.609Z,4.87
2022-11-05T19:08:01.565Z,5.00
2022-11-05T19:10:28.257Z,3.93
2022-11-05T19:12:54.949Z,4.83
2022-11-05T19:15:21.797Z,4.37
2022-11-05T19:17:48.391Z,5.13
2022-11-05T19:20:17.082Z,5.17
2022-11-05T19:22:43.589Z,6.90
2022-11-05T19:25:10.419Z,4.10
2022-11-05T19:27:38.721Z,5.23
2022-11-05T19:30:06.020Z,4.47
2022-11-05T19:32:32.691Z,7.30
2022-11-05T19:34:59.174Z,6.03
2022-11-05T19:37:25.673Z,6.20
2022-11-05T19:39:52.374Z,5.10
2022-11-05T19:42:18.877Z,5.53
2022-11-05T19:44:45.476Z,5.90
2022-11-05T19:47:12.204Z,5.10
2022-11-05T19:49:38.923Z,5.80
2022-11-05T19:52:06.687Z,5.53
2022-11-05T19:54:35.721Z,5.43
2022-11-05T19:57:02.250Z,6.07
2022-11-05T19:59:28.866Z,5.97
2022-11-05T20:01:55.639Z,5.73
2022-11-05T20:04:22.303Z,7.47
2022-11-05T20:06:49.143Z,5.63
2022-11-05T20:09:23.469Z,4.83
2022-11-05T20:11:54.802Z,6.83
2022-11-05T20:14:21.966Z,5.13
2022-11-05T20:16:49.053Z,4.80
2022-11-05T20:19:19.306Z,4.87
2022-11-05T20:21:46.256Z,5.23
2022-11-05T20:24:20.319Z,4.83
2022-11-05T20:26:50.403Z,4.40
2022-11-05T20:29:17.100Z,5.10
2022-11-05T20:31:43.652Z,4.67
2022-11-05T20:34:10.594Z,6.10
2022-11-05T20:36:37.217Z,3.87
2022-11-05T20:39:03.968Z,4.10
2022-11-05T20:41:31.583Z,3.83
2022-11-05T20:43:58.242Z,4.70
2022-11-05T20:46:25.633Z,3.90
2022-11-05T20:48:53.468Z,4.70
2022-11-05T20:51:22.964Z,3.83
2022-11-05T20:53:53.676Z,4.70
2022-11-05T20:56:23.275Z,7.27
2022-11-05T20:58:50.505Z,4.27
2022-11-05T21:01:18.712Z,4.50
2022-11-05T21:03:46.826Z,4.17
2022-11-05T21:06:13.873Z,4.00
2022-11-05T21:08:40.724Z,4.30
2022-11-05T21:11:08.204Z,3.97
2022-11-05T21:13:34.980Z,8.70
2022-11-05T21:16:02.702Z,5.50
2022-11-05T21:18:31.622Z,3.60
2022-11-05T21:21:00.436Z,5.87
2022-11-05T21:23:28.331Z,4.53
2022-11-05T21:25:55.630Z,6.50
2022-11-05T21:28:22.205Z,5.37
2022-11-05T21:30:49.279Z,5.53
2022-11-05T21:33:18.053Z,6.77
2022-11-05T21:35:46.844Z,4.63
2022-11-05T21:38:15.958Z,4.40
2022-11-05T21:40:43.103Z,4.47
2022-11-05T21:43:10.080Z,7.20
2022-11-05T21:45:41.076Z,8.93
2022-11-05T21:48:08.824Z,4.93
2022-11-05T21:50:57.017Z,5.80
2022-11-05T21:53:42.734Z,4.87
2022-11-05T21:56:43.922Z,5.60
2022-11-05T21:59:34.636Z,4.77
2022-11-05T22:02:02.141Z,4.57
2022-11-05T22:04:30.559Z,5.13
2022-11-05T22:06:57.652Z,4.80
2022-11-05T22:09:25.334Z,6.63
2022-11-05T22:11:52.906Z,4.57
2022-11-05T22:14:19.470Z,4.80
2022-11-05T22:16:46.331Z,6.30
2022-11-05T22:19:13.060Z,4.67
2022-11-05T22:21:39.894Z,5.83
2022-11-05T22:24:07.387Z,4.83
2022-11-05T22:26:33.988Z,7.63
2022-11-05T22:29:00.515Z,14.60
2022-11-05T22:31:31.770Z,9.30
2022-11-05T22:34:01.818Z,4.67
2022-11-05T22:36:28.335Z,4.33
2022-11-05T22:38:54.832Z,5.43
2022-11-05T22:41:22.562Z,5.43
2022-11-05T22:43:49.652Z,8.27
2022-11-05T22:46:19.547Z,5.53
2022-11-05T22:48:46.581Z,4.90
2022-11-05T22:51:15.780Z,3.87
2022-11-05T22:53:42.946Z,10.90
2022-11-05T22:56:12.983Z,5.30
2022-11-05T22:58:39.945Z,4.97
2022-11-05T23:01:08.240Z,6.07
2022-11-05T23:03:34.927Z,6.30
2022-11-05T23:06:04.732Z,5.47
2022-11-05T23:08:50.622Z,6.63
2022-11-05T23:11:35.548Z,4.27
2022-11-05T23:14:02.780Z,7.47
2022-11-05T23:16:48.207Z,4.23
2022-11-05T23:19:33.586Z,5.63
2022-11-05T23:22:30.002Z,7.83
2022-11-05T23:24:56.547Z,7.73
2022-11-05T23:27:23.315Z,5.60
2022-11-05T23:29:49.870Z,5.80
2022-11-05T23:32:25.079Z,7.40
2022-11-05T23:34:56.948Z,8.53
2022-11-05T23:37:51.048Z,5.93
2022-11-05T23:40:21.436Z,9.70
2022-11-05T23:43:07.150Z,10.20
2022-11-05T23:45:52.689Z,11.90
2022-11-05T23:48:29.057Z,13.53
2022-11-05T23:50:55.702Z,13.00
2022-11-05T23:53:23.048Z,12.07
2022-11-05T23:55:50.029Z,8.20
2022-11-05T23:58:17.371Z,8.30
